CheckWX is a tool to help pilots better visualize weather data.  It is not intended as a substitute for an official pre-flight weather briefing.

09:57:31 UTC

CYCY METAR
Clyde River Airport
Clyde River, Canada
Current

58 mins ago

CYCY 200900Z AUTO 31014G19KT 9SM CLR M25/M28 A2954 RMK SLP009
Observed
Feb-20 @ 09:00 UTC
Wind
  • 310° at 14 KTS
  • Gusting to 19 KTS
Visibility
14,484 meters
Flight Rules
VFR
Cloud Levels
  • Clear skies
Temperature
-25°C / -13°F
Dewpoint
-28°C / -18°F
Humidity
76%
Altimeter
29.54" Hg
Pressure
1000.9 hPa
Previous

1 hour ago

CYCY 200829Z AUTO 31018KT 6SM HZ CLR M25/M28 A2954 RMK SLP008
Observed
Feb-20 @ 08:29 UTC
Wind
  • 310° at 18 KTS
Visibility
9,656 meters
Flight Rules
VFR
Conditions
Haze
Cloud Levels
  • Clear skies
Temperature
-25°C / -13°F
Dewpoint
-28°C / -18°F
Humidity
76%
Altimeter
29.54" Hg
Pressure
1000.8 hPa
Previous

2 hours ago

CYCY 200813Z AUTO 30017KT 6SM HZ FEW017 M25/M28 A2954 RMK SLP008
Observed
Feb-20 @ 08:13 UTC
Wind
  • 300° at 17 KTS
Visibility
9,656 meters
Flight Rules
VFR
Conditions
Haze
Cloud Levels
  • Few at 1,700' AGL
Temperature
-25°C / -13°F
Dewpoint
-28°C / -18°F
Humidity
76%
Altimeter
29.54" Hg
Pressure
1000.8 hPa